sensor_id;sensor_type;location;lat;lon;timestamp;P1;durP1;ratioP1;P2;durP2;ratioP2
787;SDS011;16074;42.708;23.312;2022-11-13T00:01:58;8.52;;;7.47;;
787;SDS011;16074;42.708;23.312;2022-11-13T00:04:44;8.98;;;7.45;;
787;SDS011;16074;42.708;23.312;2022-11-13T00:07:31;10.00;;;7.65;;
787;SDS011;16074;42.708;23.312;2022-11-13T00:10:17;8.73;;;7.82;;
787;SDS011;16074;42.708;23.312;2022-11-13T00:13:04;7.97;;;6.88;;
787;SDS011;16074;42.708;23.312;2022-11-13T00:15:55;9.13;;;8.15;;
787;SDS011;16074;42.708;23.312;2022-11-13T00:18:44;8.05;;;6.82;;
787;SDS011;16074;42.708;23.312;2022-11-13T00:21:31;8.40;;;7.55;;
787;SDS011;16074;42.708;23.312;2022-11-13T00:24:18;8.65;;;7.40;;
787;SDS011;16074;42.708;23.312;2022-11-13T00:27:05;7.85;;;6.70;;
787;SDS011;16074;42.708;23.312;2022-11-13T00:29:52;9.13;;;7.55;;
787;SDS011;16074;42.708;23.312;2022-11-13T00:32:39;8.35;;;7.57;;
787;SDS011;16074;42.708;23.312;2022-11-13T00:35:27;7.85;;;7.05;;
787;SDS011;16074;42.708;23.312;2022-11-13T00:38:14;7.90;;;7.03;;
787;SDS011;16074;42.708;23.312;2022-11-13T00:41:01;8.20;;;7.40;;
787;SDS011;16074;42.708;23.312;2022-11-13T00:43:48;8.32;;;7.55;;
787;SDS011;16074;42.708;23.312;2022-11-13T00:46:34;9.10;;;7.32;;
787;SDS011;16074;42.708;23.312;2022-11-13T00:49:21;8.73;;;7.43;;
787;SDS011;16074;42.708;23.312;2022-11-13T00:52:09;10.18;;;7.45;;
787;SDS011;16074;42.708;23.312;2022-11-13T00:54:55;12.13;;;7.55;;
787;SDS011;16074;42.708;23.312;2022-11-13T00:57:42;12.25;;;7.47;;
787;SDS011;16074;42.708;23.312;2022-11-13T01:00:29;7.13;;;6.43;;
787;SDS011;16074;42.708;23.312;2022-11-13T01:03:16;8.35;;;7.03;;
787;SDS011;16074;42.708;23.312;2022-11-13T01:06:08;7.63;;;6.78;;
787;SDS011;16074;42.708;23.312;2022-11-13T01:08:57;9.13;;;7.53;;
787;SDS011;16074;42.708;23.312;2022-11-13T01:11:44;8.70;;;7.35;;
787;SDS011;16074;42.708;23.312;2022-11-13T01:14:31;8.52;;;7.63;;
787;SDS011;16074;42.708;23.312;2022-11-13T01:17:18;9.25;;;7.13;;
787;SDS011;16074;42.708;23.312;2022-11-13T01:20:04;9.65;;;7.70;;
787;SDS011;16074;42.708;23.312;2022-11-13T01:22:51;8.18;;;7.35;;
787;SDS011;16074;42.708;23.312;2022-11-13T01:25:40;8.00;;;7.10;;
787;SDS011;16074;42.708;23.312;2022-11-13T01:28:27;7.82;;;7.13;;
787;SDS011;16074;42.708;23.312;2022-11-13T01:31:15;7.55;;;6.85;;
787;SDS011;16074;42.708;23.312;2022-11-13T01:34:03;8.93;;;7.35;;
787;SDS011;16074;42.708;23.312;2022-11-13T01:36:50;9.27;;;7.05;;
787;SDS011;16074;42.708;23.312;2022-11-13T01:39:37;8.75;;;6.15;;
787;SDS011;16074;42.708;23.312;2022-11-13T01:42:25;7.30;;;6.25;;
787;SDS011;16074;42.708;23.312;2022-11-13T01:48:51;9.57;;;7.85;;
787;SDS011;16074;42.708;23.312;2022-11-13T01:51:44;9.60;;;7.18;;
787;SDS011;16074;42.708;23.312;2022-11-13T01:54:36;7.60;;;6.50;;
787;SDS011;16074;42.708;23.312;2022-11-13T01:57:27;7.95;;;7.15;;
787;SDS011;16074;42.708;23.312;2022-11-13T02:00:14;8.45;;;7.15;;
787;SDS011;16074;42.708;23.312;2022-11-13T02:03:02;7.55;;;6.25;;
787;SDS011;16074;42.708;23.312;2022-11-13T02:05:49;9.18;;;7.63;;
787;SDS011;16074;42.708;23.312;2022-11-13T02:08:36;9.30;;;7.05;;
787;SDS011;16074;42.708;23.312;2022-11-13T02:11:23;6.97;;;6.28;;
787;SDS011;16074;42.708;23.312;2022-11-13T02:14:12;7.85;;;7.03;;
787;SDS011;16074;42.708;23.312;2022-11-13T02:17:02;6.22;;;5.60;;
787;SDS011;16074;42.708;23.312;2022-11-13T02:19:53;7.45;;;6.72;;
787;SDS011;16074;42.708;23.312;2022-11-13T02:22:45;7.32;;;6.53;;
787;SDS011;16074;42.708;23.312;2022-11-13T02:25:38;7.97;;;6.15;;
787;SDS011;16074;42.708;23.312;2022-11-13T02:28:27;7.20;;;6.13;;
787;SDS011;16074;42.708;23.312;2022-11-13T02:31:14;8.65;;;5.78;;
787;SDS011;16074;42.708;23.312;2022-11-13T02:34:01;7.07;;;6.35;;
787;SDS011;16074;42.708;23.312;2022-11-13T02:36:48;9.20;;;6.03;;
787;SDS011;16074;42.708;23.312;2022-11-13T02:39:35;7.85;;;6.68;;
787;SDS011;16074;42.708;23.312;2022-11-13T02:42:23;8.40;;;6.55;;
787;SDS011;16074;42.708;23.312;2022-11-13T02:45:10;6.90;;;6.20;;
787;SDS011;16074;42.708;23.312;2022-11-13T02:47:58;7.30;;;6.60;;
787;SDS011;16074;42.708;23.312;2022-11-13T02:50:45;10.30;;;7.63;;
787;SDS011;16074;42.708;23.312;2022-11-13T02:53:32;7.95;;;6.45;;
787;SDS011;16074;42.708;23.312;2022-11-13T02:56:20;11.35;;;8.57;;
787;SDS011;16074;42.708;23.312;2022-11-13T02:59:08;8.23;;;6.32;;
787;SDS011;16074;42.708;23.312;2022-11-13T03:01:55;7.78;;;6.45;;
787;SDS011;16074;42.708;23.312;2022-11-13T03:04:41;8.65;;;6.88;;
787;SDS011;16074;42.708;23.312;2022-11-13T03:07:48;10.15;;;7.03;;
787;SDS011;16074;42.708;23.312;2022-11-13T03:10:35;6.60;;;5.95;;
787;SDS011;16074;42.708;23.312;2022-11-13T03:13:22;9.93;;;7.55;;
787;SDS011;16074;42.708;23.312;2022-11-13T03:16:10;6.78;;;6.03;;
787;SDS011;16074;42.708;23.312;2022-11-13T03:18:59;8.52;;;7.28;;
787;SDS011;16074;42.708;23.312;2022-11-13T03:21:45;10.13;;;8.10;;
787;SDS011;16074;42.708;23.312;2022-11-13T03:24:32;8.40;;;7.55;;
787;SDS011;16074;42.708;23.312;2022-11-13T03:27:19;10.20;;;6.80;;
787;SDS011;16074;42.708;23.312;2022-11-13T03:30:07;8.98;;;7.43;;
787;SDS011;16074;42.708;23.312;2022-11-13T03:32:56;19.08;;;8.25;;
787;SDS011;16074;42.708;23.312;2022-11-13T03:35:43;9.57;;;8.57;;
787;SDS011;16074;42.708;23.312;2022-11-13T03:38:30;9.00;;;7.90;;
787;SDS011;16074;42.708;23.312;2022-11-13T03:41:17;11.07;;;7.95;;
787;SDS011;16074;42.708;23.312;2022-11-13T03:44:04;9.45;;;8.50;;
787;SDS011;16074;42.708;23.312;2022-11-13T03:46:51;8.77;;;7.57;;
787;SDS011;16074;42.708;23.312;2022-11-13T03:49:39;7.50;;;6.70;;
787;SDS011;16074;42.708;23.312;2022-11-13T03:52:25;7.70;;;6.88;;
787;SDS011;16074;42.708;23.312;2022-11-13T03:55:12;9.27;;;8.15;;
787;SDS011;16074;42.708;23.312;2022-11-13T03:57:59;10.80;;;8.07;;
787;SDS011;16074;42.708;23.312;2022-11-13T04:00:46;8.30;;;7.43;;
787;SDS011;16074;42.708;23.312;2022-11-13T04:03:34;10.68;;;7.57;;
787;SDS011;16074;42.708;23.312;2022-11-13T04:06:22;8.95;;;8.05;;
787;SDS011;16074;42.708;23.312;2022-11-13T04:09:09;9.35;;;8.43;;
787;SDS011;16074;42.708;23.312;2022-11-13T04:11:56;9.50;;;7.53;;
787;SDS011;16074;42.708;23.312;2022-11-13T04:14:42;9.55;;;7.45;;
787;SDS011;16074;42.708;23.312;2022-11-13T04:17:30;8.77;;;7.85;;
787;SDS011;16074;42.708;23.312;2022-11-13T04:20:16;12.20;;;10.10;;
787;SDS011;16074;42.708;23.312;2022-11-13T04:23:04;9.82;;;7.25;;
787;SDS011;16074;42.708;23.312;2022-11-13T04:25:55;10.80;;;9.70;;
787;SDS011;16074;42.708;23.312;2022-11-13T04:28:43;10.05;;;8.70;;
787;SDS011;16074;42.708;23.312;2022-11-13T04:31:30;11.55;;;9.35;;
787;SDS011;16074;42.708;23.312;2022-11-13T04:34:17;10.00;;;9.00;;
787;SDS011;16074;42.708;23.312;2022-11-13T04:37:03;9.93;;;8.75;;
787;SDS011;16074;42.708;23.312;2022-11-13T04:39:51;9.52;;;8.43;;
787;SDS011;16074;42.708;23.312;2022-11-13T04:42:38;10.32;;;8.90;;
787;SDS011;16074;42.708;23.312;2022-11-13T04:45:33;13.75;;;9.00;;
787;SDS011;16074;42.708;23.312;2022-11-13T04:48:19;11.65;;;8.85;;
787;SDS011;16074;42.708;23.312;2022-11-13T04:51:06;9.82;;;8.82;;
787;SDS011;16074;42.708;23.312;2022-11-13T04:53:53;9.73;;;8.73;;
787;SDS011;16074;42.708;23.312;2022-11-13T04:56:41;10.82;;;8.60;;
787;SDS011;16074;42.708;23.312;2022-11-13T04:59:28;13.10;;;10.02;;
787;SDS011;16074;42.708;23.312;2022-11-13T05:02:15;13.30;;;10.90;;
787;SDS011;16074;42.708;23.312;2022-11-13T05:05:02;11.18;;;9.57;;
787;SDS011;16074;42.708;23.312;2022-11-13T05:07:50;11.82;;;9.82;;
787;SDS011;16074;42.708;23.312;2022-11-13T05:10:37;14.80;;;11.90;;
787;SDS011;16074;42.708;23.312;2022-11-13T05:13:26;15.82;;;12.20;;
787;SDS011;16074;42.708;23.312;2022-11-13T05:16:15;19.77;;;15.02;;
787;SDS011;16074;42.708;23.312;2022-11-13T05:19:02;19.30;;;12.38;;
787;SDS011;16074;42.708;23.312;2022-11-13T05:21:51;20.92;;;12.88;;
787;SDS011;16074;42.708;23.312;2022-11-13T05:24:37;19.63;;;13.88;;
787;SDS011;16074;42.708;23.312;2022-11-13T05:27:24;18.33;;;14.18;;
787;SDS011;16074;42.708;23.312;2022-11-13T05:30:12;19.23;;;13.75;;
787;SDS011;16074;42.708;23.312;2022-11-13T05:32:59;17.17;;;12.90;;
787;SDS011;16074;42.708;23.312;2022-11-13T05:35:46;16.90;;;14.02;;
787;SDS011;16074;42.708;23.312;2022-11-13T05:38:32;22.83;;;16.17;;
787;SDS011;16074;42.708;23.312;2022-11-13T05:41:20;19.50;;;14.55;;
787;SDS011;16074;42.708;23.312;2022-11-13T05:44:07;16.35;;;13.48;;
787;SDS011;16074;42.708;23.312;2022-11-13T05:46:55;18.00;;;13.23;;
787;SDS011;16074;42.708;23.312;2022-11-13T05:49:41;19.13;;;14.45;;
787;SDS011;16074;42.708;23.312;2022-11-13T05:52:28;20.48;;;15.60;;
787;SDS011;16074;42.708;23.312;2022-11-13T05:55:15;18.85;;;14.75;;
787;SDS011;16074;42.708;23.312;2022-11-13T05:58:07;18.63;;;13.38;;
787;SDS011;16074;42.708;23.312;2022-11-13T06:01:02;20.98;;;16.10;;
787;SDS011;16074;42.708;23.312;2022-11-13T06:03:52;17.90;;;14.05;;
787;SDS011;16074;42.708;23.312;2022-11-13T06:06:41;18.88;;;13.30;;
787;SDS011;16074;42.708;23.312;2022-11-13T06:09:27;17.25;;;13.15;;
787;SDS011;16074;42.708;23.312;2022-11-13T06:12:14;18.23;;;12.93;;
787;SDS011;16074;42.708;23.312;2022-11-13T06:15:01;16.70;;;13.70;;
787;SDS011;16074;42.708;23.312;2022-11-13T06:17:47;19.08;;;13.50;;
787;SDS011;16074;42.708;23.312;2022-11-13T06:20:35;22.88;;;14.93;;
787;SDS011;16074;42.708;23.312;2022-11-13T06:23:22;18.52;;;14.73;;
787;SDS011;16074;42.708;23.312;2022-11-13T06:26:10;23.25;;;13.63;;
787;SDS011;16074;42.708;23.312;2022-11-13T06:28:58;17.23;;;13.70;;
787;SDS011;16074;42.708;23.312;2022-11-13T06:31:46;21.20;;;14.55;;
787;SDS011;16074;42.708;23.312;2022-11-13T06:34:33;20.35;;;14.05;;
787;SDS011;16074;42.708;23.312;2022-11-13T06:37:21;16.75;;;14.02;;
787;SDS011;16074;42.708;23.312;2022-11-13T06:40:08;18.15;;;14.02;;
787;SDS011;16074;42.708;23.312;2022-11-13T06:42:55;15.57;;;12.60;;
787;SDS011;16074;42.708;23.312;2022-11-13T06:45:42;18.20;;;14.82;;
787;SDS011;16074;42.708;23.312;2022-11-13T06:48:28;18.42;;;14.15;;
787;SDS011;16074;42.708;23.312;2022-11-13T06:51:16;21.75;;;15.13;;
787;SDS011;16074;42.708;23.312;2022-11-13T06:54:05;18.65;;;14.57;;
787;SDS011;16074;42.708;23.312;2022-11-13T06:56:52;22.23;;;15.70;;
787;SDS011;16074;42.708;23.312;2022-11-13T06:59:38;16.77;;;13.63;;
787;SDS011;16074;42.708;23.312;2022-11-13T07:02:29;18.50;;;13.52;;
787;SDS011;16074;42.708;23.312;2022-11-13T07:05:16;20.92;;;14.63;;
787;SDS011;16074;42.708;23.312;2022-11-13T07:08:02;20.50;;;14.43;;
787;SDS011;16074;42.708;23.312;2022-11-13T07:10:54;22.60;;;14.88;;
787;SDS011;16074;42.708;23.312;2022-11-13T07:13:41;17.88;;;13.93;;
787;SDS011;16074;42.708;23.312;2022-11-13T07:16:29;25.55;;;15.63;;
787;SDS011;16074;42.708;23.312;2022-11-13T07:19:35;19.15;;;14.63;;
787;SDS011;16074;42.708;23.312;2022-11-13T07:22:22;19.63;;;13.95;;
787;SDS011;16074;42.708;23.312;2022-11-13T07:25:09;19.52;;;14.63;;
787;SDS011;16074;42.708;23.312;2022-11-13T07:27:57;16.27;;;12.90;;
787;SDS011;16074;42.708;23.312;2022-11-13T07:30:44;18.48;;;13.52;;
787;SDS011;16074;42.708;23.312;2022-11-13T07:33:31;14.30;;;12.65;;
787;SDS011;16074;42.708;23.312;2022-11-13T07:36:17;19.83;;;14.38;;
787;SDS011;16074;42.708;23.312;2022-11-13T07:39:04;17.17;;;13.32;;
787;SDS011;16074;42.708;23.312;2022-11-13T07:41:51;21.95;;;14.60;;
787;SDS011;16074;42.708;23.312;2022-11-13T07:44:39;19.77;;;14.18;;
787;SDS011;16074;42.708;23.312;2022-11-13T07:47:39;15.40;;;13.70;;
787;SDS011;16074;42.708;23.312;2022-11-13T07:50:27;20.42;;;15.43;;
787;SDS011;16074;42.708;23.312;2022-11-13T07:53:15;16.85;;;13.27;;
787;SDS011;16074;42.708;23.312;2022-11-13T07:56:02;19.25;;;13.07;;
787;SDS011;16074;42.708;23.312;2022-11-13T07:58:50;22.08;;;15.27;;
787;SDS011;16074;42.708;23.312;2022-11-13T08:01:38;17.67;;;13.18;;
787;SDS011;16074;42.708;23.312;2022-11-13T08:04:24;20.08;;;13.82;;
787;SDS011;16074;42.708;23.312;2022-11-13T08:07:11;20.77;;;16.00;;
787;SDS011;16074;42.708;23.312;2022-11-13T08:09:58;20.73;;;15.57;;
787;SDS011;16074;42.708;23.312;2022-11-13T08:12:45;19.77;;;14.23;;
787;SDS011;16074;42.708;23.312;2022-11-13T08:15:32;21.80;;;15.32;;
787;SDS011;16074;42.708;23.312;2022-11-13T08:18:21;20.70;;;15.50;;
787;SDS011;16074;42.708;23.312;2022-11-13T08:21:07;18.60;;;14.75;;
787;SDS011;16074;42.708;23.312;2022-11-13T08:23:59;19.50;;;14.32;;
787;SDS011;16074;42.708;23.312;2022-11-13T08:26:45;20.95;;;15.43;;
787;SDS011;16074;42.708;23.312;2022-11-13T08:29:32;21.02;;;14.82;;
787;SDS011;16074;42.708;23.312;2022-11-13T08:32:21;18.42;;;15.75;;
787;SDS011;16074;42.708;23.312;2022-11-13T08:35:09;21.27;;;14.60;;
787;SDS011;16074;42.708;23.312;2022-11-13T08:38:03;16.60;;;14.00;;
787;SDS011;16074;42.708;23.312;2022-11-13T08:40:51;20.70;;;14.70;;
787;SDS011;16074;42.708;23.312;2022-11-13T08:43:38;19.33;;;14.50;;
787;SDS011;16074;42.708;23.312;2022-11-13T08:46:24;20.50;;;17.08;;
787;SDS011;16074;42.708;23.312;2022-11-13T08:49:11;18.95;;;15.52;;
787;SDS011;16074;42.708;23.312;2022-11-13T08:51:59;25.67;;;16.75;;
787;SDS011;16074;42.708;23.312;2022-11-13T08:54:46;21.45;;;17.23;;
787;SDS011;16074;42.708;23.312;2022-11-13T08:57:33;20.85;;;14.70;;
787;SDS011;16074;42.708;23.312;2022-11-13T09:00:20;20.05;;;17.05;;
787;SDS011;16074;42.708;23.312;2022-11-13T09:03:07;20.00;;;15.95;;
787;SDS011;16074;42.708;23.312;2022-11-13T09:05:56;19.95;;;15.77;;
787;SDS011;16074;42.708;23.312;2022-11-13T09:08:44;25.17;;;15.05;;
787;SDS011;16074;42.708;23.312;2022-11-13T09:11:30;20.25;;;16.13;;
787;SDS011;16074;42.708;23.312;2022-11-13T09:14:17;20.50;;;16.13;;
787;SDS011;16074;42.708;23.312;2022-11-13T09:17:04;21.05;;;15.27;;
787;SDS011;16074;42.708;23.312;2022-11-13T09:19:51;20.30;;;15.98;;
787;SDS011;16074;42.708;23.312;2022-11-13T09:22:37;21.25;;;15.95;;
787;SDS011;16074;42.708;23.312;2022-11-13T09:25:26;21.17;;;14.98;;
787;SDS011;16074;42.708;23.312;2022-11-13T09:28:21;17.42;;;14.07;;
787;SDS011;16074;42.708;23.312;2022-11-13T09:31:08;20.58;;;15.48;;
787;SDS011;16074;42.708;23.312;2022-11-13T09:33:55;18.90;;;14.75;;
787;SDS011;16074;42.708;23.312;2022-11-13T09:36:42;19.17;;;14.57;;
787;SDS011;16074;42.708;23.312;2022-11-13T09:39:28;20.17;;;14.93;;
787;SDS011;16074;42.708;23.312;2022-11-13T09:42:17;20.08;;;16.00;;
787;SDS011;16074;42.708;23.312;2022-11-13T09:45:09;19.30;;;15.20;;
787;SDS011;16074;42.708;23.312;2022-11-13T09:48:03;20.65;;;15.38;;
787;SDS011;16074;42.708;23.312;2022-11-13T09:50:57;18.58;;;15.55;;
787;SDS011;16074;42.708;23.312;2022-11-13T09:53:49;19.20;;;14.80;;
787;SDS011;16074;42.708;23.312;2022-11-13T09:56:38;19.05;;;14.55;;
787;SDS011;16074;42.708;23.312;2022-11-13T09:59:31;18.48;;;14.70;;
787;SDS011;16074;42.708;23.312;2022-11-13T10:02:24;19.00;;;14.65;;
787;SDS011;16074;42.708;23.312;2022-11-13T10:05:20;19.02;;;14.30;;
787;SDS011;16074;42.708;23.312;2022-11-13T10:08:10;18.75;;;14.40;;
787;SDS011;16074;42.708;23.312;2022-11-13T10:11:01;20.77;;;15.15;;
787;SDS011;16074;42.708;23.312;2022-11-13T10:13:56;19.48;;;15.80;;
787;SDS011;16074;42.708;23.312;2022-11-13T10:16:47;20.13;;;15.55;;
787;SDS011;16074;42.708;23.312;2022-11-13T10:19:39;18.25;;;15.23;;
787;SDS011;16074;42.708;23.312;2022-11-13T10:22:33;17.38;;;14.55;;
787;SDS011;16074;42.708;23.312;2022-11-13T10:25:23;15.68;;;13.98;;
787;SDS011;16074;42.708;23.312;2022-11-13T10:28:13;17.65;;;14.82;;
787;SDS011;16074;42.708;23.312;2022-11-13T10:31:22;18.45;;;15.13;;
787;SDS011;16074;42.708;23.312;2022-11-13T10:34:11;18.95;;;15.23;;
787;SDS011;16074;42.708;23.312;2022-11-13T10:37:08;22.95;;;15.35;;
787;SDS011;16074;42.708;23.312;2022-11-13T10:40:05;18.60;;;15.00;;
787;SDS011;16074;42.708;23.312;2022-11-13T10:42:53;20.08;;;15.73;;
787;SDS011;16074;42.708;23.312;2022-11-13T10:45:39;15.70;;;13.48;;
787;SDS011;16074;42.708;23.312;2022-11-13T10:48:28;18.80;;;15.20;;
787;SDS011;16074;42.708;23.312;2022-11-13T10:51:23;18.43;;;15.97;;
787;SDS011;16074;42.708;23.312;2022-11-13T10:54:21;21.93;;;17.10;;
787;SDS011;16074;42.708;23.312;2022-11-13T10:57:23;20.90;;;15.70;;
787;SDS011;16074;42.708;23.312;2022-11-13T11:00:18;19.27;;;15.43;;
787;SDS011;16074;42.708;23.312;2022-11-13T11:03:07;22.27;;;16.23;;
787;SDS011;16074;42.708;23.312;2022-11-13T11:05:55;17.70;;;14.70;;
787;SDS011;16074;42.708;23.312;2022-11-13T11:08:44;18.20;;;15.50;;
787;SDS011;16074;42.708;23.312;2022-11-13T11:11:31;20.20;;;14.63;;
787;SDS011;16074;42.708;23.312;2022-11-13T11:14:36;16.53;;;14.77;;
787;SDS011;16074;42.708;23.312;2022-11-13T11:17:28;18.60;;;14.30;;
787;SDS011;16074;42.708;23.312;2022-11-13T11:20:20;18.63;;;14.70;;
787;SDS011;16074;42.708;23.312;2022-11-13T11:23:14;19.03;;;14.67;;
787;SDS011;16074;42.708;23.312;2022-11-13T11:26:10;17.03;;;14.10;;
787;SDS011;16074;42.708;23.312;2022-11-13T11:29:04;16.95;;;15.10;;
787;SDS011;16074;42.708;23.312;2022-11-13T11:32:00;18.17;;;15.03;;
787;SDS011;16074;42.708;23.312;2022-11-13T11:34:54;17.13;;;14.57;;
787;SDS011;16074;42.708;23.312;2022-11-13T11:37:48;17.35;;;14.70;;
787;SDS011;16074;42.708;23.312;2022-11-13T11:40:41;18.80;;;15.02;;
787;SDS011;16074;42.708;23.312;2022-11-13T11:43:36;17.90;;;14.70;;
787;SDS011;16074;42.708;23.312;2022-11-13T11:46:27;18.45;;;14.70;;
787;SDS011;16074;42.708;23.312;2022-11-13T11:49:14;20.02;;;16.30;;
787;SDS011;16074;42.708;23.312;2022-11-13T11:52:03;20.40;;;16.00;;
787;SDS011;16074;42.708;23.312;2022-11-13T11:55:01;19.52;;;16.00;;
787;SDS011;16074;42.708;23.312;2022-11-13T11:57:59;19.35;;;16.05;;
787;SDS011;16074;42.708;23.312;2022-11-13T12:01:03;18.70;;;14.57;;
787;SDS011;16074;42.708;23.312;2022-11-13T12:03:57;17.35;;;13.85;;
787;SDS011;16074;42.708;23.312;2022-11-13T12:06:56;19.85;;;15.80;;
787;SDS011;16074;42.708;23.312;2022-11-13T12:09:53;19.45;;;16.23;;
787;SDS011;16074;42.708;23.312;2022-11-13T12:12:52;19.08;;;15.77;;
787;SDS011;16074;42.708;23.312;2022-11-13T12:15:47;17.98;;;13.00;;
787;SDS011;16074;42.708;23.312;2022-11-13T12:18:44;19.58;;;14.63;;
787;SDS011;16074;42.708;23.312;2022-11-13T12:21:41;18.85;;;15.18;;
787;SDS011;16074;42.708;23.312;2022-11-13T12:24:42;20.05;;;15.50;;
787;SDS011;16074;42.708;23.312;2022-11-13T12:27:45;19.40;;;14.82;;
787;SDS011;16074;42.708;23.312;2022-11-13T12:30:37;18.08;;;14.27;;
787;SDS011;16074;42.708;23.312;2022-11-13T12:33:33;15.98;;;13.20;;
787;SDS011;16074;42.708;23.312;2022-11-13T12:36:28;19.38;;;14.02;;
787;SDS011;16074;42.708;23.312;2022-11-13T12:39:25;18.17;;;15.50;;
787;SDS011;16074;42.708;23.312;2022-11-13T12:42:20;21.30;;;15.68;;
787;SDS011;16074;42.708;23.312;2022-11-13T12:45:15;21.73;;;15.57;;
787;SDS011;16074;42.708;23.312;2022-11-13T12:48:18;18.38;;;14.95;;
787;SDS011;16074;42.708;23.312;2022-11-13T12:51:08;18.90;;;15.45;;
787;SDS011;16074;42.708;23.312;2022-11-13T12:53:57;17.92;;;15.13;;
787;SDS011;16074;42.708;23.312;2022-11-13T12:56:44;19.33;;;14.50;;
787;SDS011;16074;42.708;23.312;2022-11-13T12:59:31;15.82;;;13.30;;
787;SDS011;16074;42.708;23.312;2022-11-13T13:02:26;18.77;;;14.98;;
787;SDS011;16074;42.708;23.312;2022-11-13T13:05:22;17.08;;;14.63;;
787;SDS011;16074;42.708;23.312;2022-11-13T13:08:19;16.25;;;13.38;;
787;SDS011;16074;42.708;23.312;2022-11-13T13:11:19;19.70;;;14.97;;
787;SDS011;16074;42.708;23.312;2022-11-13T13:14:24;18.40;;;14.70;;
787;SDS011;16074;42.708;23.312;2022-11-13T13:17:18;16.27;;;13.43;;
787;SDS011;16074;42.708;23.312;2022-11-13T13:20:28;16.23;;;12.43;;
787;SDS011;16074;42.708;23.312;2022-11-13T13:23:25;15.10;;;13.07;;
787;SDS011;16074;42.708;23.312;2022-11-13T13:26:14;16.47;;;13.17;;
787;SDS011;16074;42.708;23.312;2022-11-13T13:29:11;19.83;;;16.27;;
787;SDS011;16074;42.708;23.312;2022-11-13T13:32:03;22.00;;;15.43;;
787;SDS011;16074;42.708;23.312;2022-11-13T13:35:07;18.10;;;14.40;;
787;SDS011;16074;42.708;23.312;2022-11-13T13:38:01;19.63;;;15.70;;
787;SDS011;16074;42.708;23.312;2022-11-13T13:41:00;21.20;;;15.63;;
787;SDS011;16074;42.708;23.312;2022-11-13T13:44:11;22.63;;;17.90;;
787;SDS011;16074;42.708;23.312;2022-11-13T13:47:13;20.50;;;15.10;;
787;SDS011;16074;42.708;23.312;2022-11-13T13:50:07;16.90;;;14.33;;
787;SDS011;16074;42.708;23.312;2022-11-13T13:53:00;23.50;;;14.20;;
787;SDS011;16074;42.708;23.312;2022-11-13T13:55:48;18.60;;;14.20;;
787;SDS011;16074;42.708;23.312;2022-11-13T13:58:38;18.97;;;15.27;;
787;SDS011;16074;42.708;23.312;2022-11-13T14:01:27;19.03;;;15.87;;
787;SDS011;16074;42.708;23.312;2022-11-13T14:04:17;15.53;;;13.57;;
787;SDS011;16074;42.708;23.312;2022-11-13T14:07:17;20.87;;;16.43;;
787;SDS011;16074;42.708;23.312;2022-11-13T14:10:06;19.33;;;15.27;;
787;SDS011;16074;42.708;23.312;2022-11-13T14:12:59;19.03;;;17.03;;
787;SDS011;16074;42.708;23.312;2022-11-13T14:15:46;23.63;;;18.70;;
787;SDS011;16074;42.708;23.312;2022-11-13T14:18:34;17.87;;;15.20;;
787;SDS011;16074;42.708;23.312;2022-11-13T14:21:21;24.90;;;18.67;;
787;SDS011;16074;42.708;23.312;2022-11-13T14:24:09;24.80;;;17.30;;
787;SDS011;16074;42.708;23.312;2022-11-13T14:27:04;17.10;;;15.20;;
787;SDS011;16074;42.708;23.312;2022-11-13T14:29:54;19.03;;;15.13;;
787;SDS011;16074;42.708;23.312;2022-11-13T14:32:42;18.10;;;15.83;;
787;SDS011;16074;42.708;23.312;2022-11-13T14:35:32;20.30;;;16.33;;
787;SDS011;16074;42.708;23.312;2022-11-13T14:38:20;20.00;;;15.67;;
787;SDS011;16074;42.708;23.312;2022-11-13T14:41:19;18.10;;;15.27;;
787;SDS011;16074;42.708;23.312;2022-11-13T14:44:08;19.97;;;15.73;;
787;SDS011;16074;42.708;23.312;2022-11-13T14:47:00;24.60;;;17.63;;
787;SDS011;16074;42.708;23.312;2022-11-13T14:49:48;23.30;;;18.50;;
787;SDS011;16074;42.708;23.312;2022-11-13T14:52:37;24.60;;;17.53;;
787;SDS011;16074;42.708;23.312;2022-11-13T14:55:24;21.10;;;17.13;;
787;SDS011;16074;42.708;23.312;2022-11-13T14:58:12;24.55;;;18.50;;
787;SDS011;16074;42.708;23.312;2022-11-13T15:01:11;21.45;;;16.65;;
787;SDS011;16074;42.708;23.312;2022-11-13T15:04:00;22.88;;;18.02;;
787;SDS011;16074;42.708;23.312;2022-11-13T15:06:47;24.60;;;18.75;;
787;SDS011;16074;42.708;23.312;2022-11-13T15:09:36;29.80;;;18.70;;
787;SDS011;16074;42.708;23.312;2022-11-13T15:12:23;24.25;;;18.85;;
787;SDS011;16074;42.708;23.312;2022-11-13T15:15:12;28.38;;;21.50;;
787;SDS011;16074;42.708;23.312;2022-11-13T15:18:00;32.72;;;22.88;;
787;SDS011;16074;42.708;23.312;2022-11-13T15:20:48;31.05;;;22.15;;
787;SDS011;16074;42.708;23.312;2022-11-13T15:23:34;31.75;;;22.70;;
787;SDS011;16074;42.708;23.312;2022-11-13T15:26:23;29.33;;;21.13;;
787;SDS011;16074;42.708;23.312;2022-11-13T15:29:09;36.15;;;23.73;;
787;SDS011;16074;42.708;23.312;2022-11-13T15:31:56;29.35;;;20.02;;
787;SDS011;16074;42.708;23.312;2022-11-13T15:34:43;32.80;;;21.85;;
787;SDS011;16074;42.708;23.312;2022-11-13T15:37:30;27.75;;;20.42;;
787;SDS011;16074;42.708;23.312;2022-11-13T15:40:17;30.55;;;21.27;;
787;SDS011;16074;42.708;23.312;2022-11-13T15:43:07;27.67;;;19.48;;
787;SDS011;16074;42.708;23.312;2022-11-13T15:45:59;28.52;;;19.85;;
787;SDS011;16074;42.708;23.312;2022-11-13T15:48:46;30.65;;;21.65;;
787;SDS011;16074;42.708;23.312;2022-11-13T15:51:35;34.47;;;22.15;;
787;SDS011;16074;42.708;23.312;2022-11-13T15:54:26;31.05;;;22.08;;
787;SDS011;16074;42.708;23.312;2022-11-13T15:57:17;35.00;;;23.92;;
787;SDS011;16074;42.708;23.312;2022-11-13T16:00:11;35.40;;;26.10;;
787;SDS011;16074;42.708;23.312;2022-11-13T16:02:59;32.97;;;24.25;;
787;SDS011;16074;42.708;23.312;2022-11-13T16:05:48;30.27;;;23.55;;
787;SDS011;16074;42.708;23.312;2022-11-13T16:08:35;35.33;;;21.83;;
787;SDS011;16074;42.708;23.312;2022-11-13T16:11:22;27.23;;;21.88;;
787;SDS011;16074;42.708;23.312;2022-11-13T16:14:09;33.33;;;24.58;;
787;SDS011;16074;42.708;23.312;2022-11-13T16:16:57;31.10;;;23.45;;
787;SDS011;16074;42.708;23.312;2022-11-13T16:19:44;36.80;;;22.13;;
787;SDS011;16074;42.708;23.312;2022-11-13T16:22:32;33.30;;;23.80;;
787;SDS011;16074;42.708;23.312;2022-11-13T16:25:20;31.40;;;23.48;;
787;SDS011;16074;42.708;23.312;2022-11-13T16:28:08;36.05;;;24.50;;
787;SDS011;16074;42.708;23.312;2022-11-13T16:31:00;33.15;;;24.73;;
787;SDS011;16074;42.708;23.312;2022-11-13T16:33:49;32.55;;;23.85;;
787;SDS011;16074;42.708;23.312;2022-11-13T16:36:36;34.50;;;24.75;;
787;SDS011;16074;42.708;23.312;2022-11-13T16:39:22;37.05;;;26.35;;
787;SDS011;16074;42.708;23.312;2022-11-13T16:42:09;38.10;;;26.23;;
787;SDS011;16074;42.708;23.312;2022-11-13T16:44:56;43.13;;;28.33;;
787;SDS011;16074;42.708;23.312;2022-11-13T16:47:42;35.53;;;25.85;;
787;SDS011;16074;42.708;23.312;2022-11-13T16:50:32;39.83;;;24.83;;
787;SDS011;16074;42.708;23.312;2022-11-13T16:53:20;39.17;;;28.25;;
787;SDS011;16074;42.708;23.312;2022-11-13T16:56:11;42.88;;;30.48;;
787;SDS011;16074;42.708;23.312;2022-11-13T16:58:59;46.75;;;30.55;;